Time;durP1;ratioP1;P1;durP2;ratioP2;P2;SDS_P1;SDS_P2;PMS_P1;PMS_P2;Temp;Humidity;BMP_temperature;BMP_pressure;BME280_temperature;BME280_humidity;BME280_pressure;Samples;Min_cycle;Max_cycle;Signal;HPM_P1;HPM_P2
2022/01/30 00:00:55;;;;;;;20.97;11.13;;;2.90;63.60;;;;;;5065073;28;20297;-77
2022/01/30 00:03:23;;;;;;;21.67;10.40;;;2.90;63.60;;;;;;5076041;28;20190;-77
2022/01/30 00:05:52;;;;;;;23.50;10.37;;;2.80;63.70;;;;;;5065216;28;20202;-78
2022/01/30 00:08:21;;;;;;;20.17;10.27;;;2.80;63.70;;;;;;5070441;28;20214;-77
2022/01/30 00:10:55;;;;;;;22.67;10.67;;;2.80;63.70;;;;;;5063704;28;20194;-77
2022/01/30 00:13:27;;;;;;;24.00;10.87;;;2.80;63.80;;;;;;5056410;28;20190;-77
2022/01/30 00:15:56;;;;;;;18.33;9.87;;;2.80;63.80;;;;;;5067912;28;20599;-77
2022/01/30 00:18:42;;;;;;;21.37;10.73;;;2.80;64.00;;;;;;5066132;28;20825;-77
2022/01/30 00:21:16;;;;;;;23.85;12.30;;;2.70;64.10;;;;;;5064076;28;20470;-77
2022/01/30 00:23:48;;;;;;;24.87;9.80;;;2.70;64.40;;;;;;5066693;28;20182;-77
2022/01/30 00:26:18;;;;;;;16.50;8.47;;;2.60;64.70;;;;;;5071787;28;20198;-78
2022/01/30 00:28:48;;;;;;;13.83;7.53;;;2.60;64.90;;;;;;5073999;28;20221;-77
2022/01/30 00:31:19;;;;;;;15.97;7.37;;;2.50;65.10;;;;;;5070646;28;20201;-77
2022/01/30 00:33:54;;;;;;;14.97;7.53;;;2.50;65.50;;;;;;5071988;28;20192;-77
2022/01/30 00:36:23;;;;;;;13.13;6.70;;;2.40;65.60;;;;;;5075822;28;20201;-78
2022/01/30 00:38:51;;;;;;;12.10;6.60;;;2.40;66.10;;;;;;5067778;28;20400;-77
2022/01/30 00:41:19;;;;;;;13.03;6.53;;;2.40;66.40;;;;;;5078954;28;20602;-77
2022/01/30 00:43:49;;;;;;;15.40;7.23;;;2.30;66.80;;;;;;5064971;28;20289;-77
2022/01/30 00:46:18;;;;;;;16.00;6.20;;;2.30;67.00;;;;;;5063985;28;20198;-78
2022/01/30 00:48:47;;;;;;;15.93;8.05;;;2.20;67.20;;;;;;5068717;28;20546;-78
2022/01/30 00:51:17;;;;;;;14.13;7.33;;;2.20;67.50;;;;;;5072959;28;20204;-77
2022/01/30 00:53:45;;;;;;;14.47;6.23;;;2.10;67.80;;;;;;5073899;28;20212;-77
2022/01/30 00:56:14;;;;;;;16.60;6.90;;;2.10;68.00;;;;;;5077163;28;20237;-78
2022/01/30 00:58:42;;;;;;;13.93;6.70;;;2.10;68.20;;;;;;5077717;28;20190;-77
2022/01/30 01:01:12;;;;;;;13.57;6.03;;;2.00;68.70;;;;;;5062078;28;20201;-78
2022/01/30 01:03:41;;;;;;;11.53;6.37;;;2.00;69.50;;;;;;5066221;28;20213;-78
2022/01/30 01:06:09;;;;;;;14.87;6.50;;;2.00;68.70;;;;;;5074797;28;20189;-78
2022/01/30 01:08:48;;;;;;;12.33;5.67;;;2.00;68.70;;;;;;5082220;28;20220;-78
2022/01/30 01:11:42;;;;;;;16.13;7.13;;;2.00;68.90;;;;;;5071303;28;20193;-78
2022/01/30 01:20:52;;;;;;;11.93;6.00;;;2.00;68.70;;;;;;5067828;28;20266;-78
2022/01/30 01:25:38;;;;;;;10.33;6.17;;;1.90;68.60;;;;;;4994977;28;20212;-78
2022/01/30 01:28:06;;;;;;;12.67;7.13;;;1.90;68.70;;;;;;4973590;28;20283;-79
2022/01/30 01:30:34;;;;;;;15.97;6.60;;;1.80;68.90;;;;;;5021419;28;20195;-78
2022/01/30 01:33:05;;;;;;;11.37;6.00;;;1.80;68.90;;;;;;5076777;28;20208;-78
2022/01/30 01:35:34;;;;;;;14.03;6.73;;;1.80;68.90;;;;;;5049720;28;20197;-78
2022/01/30 01:38:04;;;;;;;13.60;6.37;;;1.80;68.90;;;;;;5073271;28;20198;-78
2022/01/30 01:40:32;;;;;;;14.27;6.47;;;1.80;69.10;;;;;;5080462;28;20201;-78
2022/01/30 01:43:02;;;;;;;11.53;6.27;;;1.70;69.60;;;;;;5063367;28;20194;-78
2022/01/30 01:45:34;;;;;;;14.33;7.00;;;1.70;69.60;;;;;;5077236;28;20189;-78
2022/01/30 01:48:10;;;;;;;13.70;6.60;;;1.70;69.80;;;;;;5060787;28;20223;-78
2022/01/30 01:50:40;;;;;;;15.07;6.87;;;1.60;70.00;;;;;;5078645;28;20254;-78
2022/01/30 01:53:10;;;;;;;11.70;6.47;;;1.60;70.20;;;;;;5078856;28;20196;-79
2022/01/30 01:55:38;;;;;;;15.17;6.80;;;1.60;70.40;;;;;;5085046;28;20197;-78
2022/01/30 01:58:07;;;;;;;11.47;6.60;;;1.50;70.50;;;;;;5056253;28;20225;-79
2022/01/30 02:00:36;;;;;;;12.17;6.23;;;1.50;70.50;;;;;;5083357;28;20867;-78
2022/01/30 02:03:06;;;;;;;15.13;7.47;;;1.50;70.50;;;;;;5071688;28;20255;-79
2022/01/30 02:05:36;;;;;;;14.57;7.37;;;1.50;70.80;;;;;;5068804;28;20305;-80
2022/01/30 02:10:54;;;;;;;17.23;7.67;;;1.40;71.40;;;;;;5075137;28;20196;-79
2022/01/30 02:25:19;;;;;;;17.30;7.67;;;1.30;71.80;;;;;;5070907;28;20190;-79
2022/01/30 02:27:48;;;;;;;19.27;7.67;;;1.30;71.90;;;;;;5083272;28;20203;-79
2022/01/30 02:30:20;;;;;;;15.67;7.23;;;1.30;72.00;;;;;;5074916;28;20227;-79
2022/01/30 02:32:50;;;;;;;16.80;7.83;;;1.30;72.30;;;;;;5080703;28;20187;-79
2022/01/30 02:35:18;;;;;;;14.67;7.80;;;1.30;72.50;;;;;;5078539;28;20254;-79
2022/01/30 02:37:48;;;;;;;18.63;7.53;;;1.30;72.50;;;;;;5067731;28;20208;-79
2022/01/30 02:40:17;;;;;;;15.80;7.97;;;1.30;72.70;;;;;;5066265;28;20205;-79
2022/01/30 02:42:49;;;;;;;14.30;7.03;;;1.20;72.70;;;;;;5080329;28;20201;-79
2022/01/30 02:45:19;;;;;;;14.37;7.23;;;1.20;73.00;;;;;;5068979;28;20585;-79
2022/01/30 02:48:11;;;;;;;18.10;8.07;;;1.20;73.50;;;;;;5066478;28;20197;-79
2022/01/30 02:50:51;;;;;;;15.53;7.97;;;1.20;73.20;;;;;;5071471;28;21019;-79
2022/01/30 02:53:29;;;;;;;16.23;7.97;;;1.20;73.50;;;;;;5072859;28;20665;-78
2022/01/30 02:55:59;;;;;;;14.63;6.83;;;1.20;73.30;;;;;;5073162;28;20192;-78
2022/01/30 02:58:27;;;;;;;19.07;9.07;;;1.20;73.40;;;;;;5078861;28;20568;-78
2022/01/30 03:00:55;;;;;;;18.80;7.67;;;1.20;73.60;;;;;;5078280;28;20254;-79
2022/01/30 03:03:24;;;;;;;15.20;7.23;;;1.20;73.80;;;;;;5079055;28;20191;-78
2022/01/30 03:05:52;;;;;;;17.37;8.30;;;1.20;73.60;;;;;;5065327;28;20206;-79
2022/01/30 03:08:21;;;;;;;17.53;8.57;;;1.20;73.70;;;;;;5069274;28;20209;-79
2022/01/30 03:10:49;;;;;;;17.53;8.60;;;1.20;73.60;;;;;;5075647;28;20246;-79
2022/01/30 03:13:19;;;;;;;14.93;7.77;;;1.20;73.50;;;;;;5070855;28;20646;-79
2022/01/30 03:15:47;;;;;;;16.67;7.90;;;1.20;73.60;;;;;;5069458;28;20197;-79
2022/01/30 03:18:16;;;;;;;16.37;7.47;;;1.30;73.50;;;;;;5063495;28;20907;-78
2022/01/30 03:20:44;;;;;;;15.10;7.47;;;1.30;73.60;;;;;;5076691;28;20319;-78
2022/01/30 03:23:12;;;;;;;16.83;7.70;;;1.30;73.80;;;;;;5069771;28;20189;-78
2022/01/30 03:25:40;;;;;;;15.63;7.50;;;1.30;73.60;;;;;;5072918;28;20194;-79
2022/01/30 03:28:11;;;;;;;17.13;8.10;;;1.30;74.00;;;;;;5060693;28;20227;-78
2022/01/30 03:30:41;;;;;;;16.00;7.70;;;1.30;74.10;;;;;;5075659;28;20197;-79
2022/01/30 03:33:09;;;;;;;19.87;7.93;;;1.30;74.00;;;;;;5070673;28;20338;-78
2022/01/30 03:35:38;;;;;;;13.87;7.33;;;1.30;74.40;;;;;;5082829;28;20196;-78
2022/01/30 03:38:07;;;;;;;17.33;8.00;;;1.40;74.50;;;;;;5066339;28;20778;-78
2022/01/30 03:40:35;;;;;;;15.30;8.27;;;1.40;74.60;;;;;;5076032;28;20217;-78
2022/01/30 03:43:04;;;;;;;15.33;7.37;;;1.40;74.70;;;;;;5084299;28;20254;-78
2022/01/30 03:45:32;;;;;;;16.47;7.20;;;1.40;74.70;;;;;;5066246;28;20704;-78
2022/01/30 03:48:03;;;;;;;12.33;6.90;;;1.50;74.80;;;;;;5069312;28;20201;-78
2022/01/30 03:50:31;;;;;;;14.23;8.07;;;1.50;74.80;;;;;;5071223;28;20221;-78
2022/01/30 03:52:59;;;;;;;14.70;7.17;;;1.60;75.00;;;;;;5064076;28;20277;-79
2022/01/30 03:55:28;;;;;;;15.87;7.90;;;1.60;74.80;;;;;;5052144;28;20206;-79
2022/01/30 03:57:56;;;;;;;17.20;8.80;;;1.70;74.70;;;;;;5066392;28;20694;-78
2022/01/30 04:00:24;;;;;;;13.57;7.07;;;1.70;74.60;;;;;;5080243;28;20722;-79
2022/01/30 04:02:53;;;;;;;13.57;7.50;;;1.80;74.70;;;;;;5070039;28;20496;-79
2022/01/30 04:05:23;;;;;;;18.53;7.90;;;1.80;74.70;;;;;;5072524;28;20236;-78
2022/01/30 04:07:52;;;;;;;16.47;8.50;;;1.80;74.80;;;;;;5076808;28;20591;-78
2022/01/30 04:10:21;;;;;;;18.00;9.47;;;1.80;75.40;;;;;;5081886;28;20197;-79
2022/01/30 04:12:49;;;;;;;16.73;8.93;;;1.80;75.60;;;;;;5079085;28;20706;-78
2022/01/30 04:15:18;;;;;;;22.30;9.37;;;1.80;76.40;;;;;;5075023;28;20225;-78
2022/01/30 04:17:47;;;;;;;14.57;8.33;;;1.80;77.20;;;;;;5072775;28;20198;-78
2022/01/30 04:20:16;;;;;;;14.87;7.43;;;1.80;77.00;;;;;;5068521;28;20775;-79
2022/01/30 04:22:46;;;;;;;13.23;7.97;;;1.80;77.20;;;;;;5074833;28;20251;-78
2022/01/30 04:25:14;;;;;;;15.97;7.83;;;1.80;76.90;;;;;;5069495;28;20190;-79
2022/01/30 04:27:42;;;;;;;13.87;7.50;;;1.90;77.50;;;;;;5071615;28;20194;-78
2022/01/30 04:30:12;;;;;;;13.20;8.07;;;1.90;77.70;;;;;;5069162;28;20201;-78
2022/01/30 04:32:43;;;;;;;12.03;6.60;;;1.90;78.50;;;;;;5078511;28;20197;-78
2022/01/30 04:35:17;;;;;;;13.43;7.30;;;1.90;78.30;;;;;;5079732;28;20193;-78
2022/01/30 04:37:59;;;;;;;13.63;7.33;;;1.90;78.30;;;;;;5075303;28;20246;-78
2022/01/30 04:41:00;;;;;;;13.33;6.80;;;2.00;78.40;;;;;;5067659;28;20210;-78
2022/01/30 04:57:46;;;;;;;13.70;6.80;;;2.10;78.80;;;;;;5079373;28;20210;-79
2022/01/30 05:00:33;;;;;;;13.50;6.83;;;2.10;78.80;;;;;;5074366;28;20737;-79
2022/01/30 05:03:18;;;;;;;12.13;6.67;;;2.10;79.10;;;;;;5063943;28;20191;-78
2022/01/30 05:05:57;;;;;;;13.57;7.10;;;2.20;79.00;;;;;;5060676;28;20190;-79
2022/01/30 05:08:27;;;;;;;12.37;6.37;;;2.20;79.30;;;;;;5058646;28;20246;-79
2022/01/30 05:10:56;;;;;;;15.30;7.60;;;2.20;79.10;;;;;;5071775;28;20248;-79
2022/01/30 05:13:29;;;;;;;13.93;7.43;;;2.20;79.20;;;;;;5066424;28;20198;-80
2022/01/30 05:15:57;;;;;;;12.53;7.13;;;2.20;79.20;;;;;;5066992;28;20671;-79
2022/01/30 05:18:28;;;;;;;12.33;6.50;;;2.20;79.10;;;;;;5056546;28;20271;-78
2022/01/30 05:20:57;;;;;;;12.13;7.00;;;2.10;80.20;;;;;;5064744;28;20212;-78
2022/01/30 05:23:26;;;;;;;15.90;7.33;;;2.20;79.20;;;;;;5067564;28;20667;-79
2022/01/30 05:25:56;;;;;;;14.63;7.10;;;2.20;79.20;;;;;;5055940;28;20199;-78
2022/01/30 05:28:25;;;;;;;20.20;7.73;;;2.30;79.20;;;;;;5063397;28;20198;-78
2022/01/30 05:30:54;;;;;;;13.93;6.70;;;2.30;79.30;;;;;;5069207;28;20194;-79
2022/01/30 05:33:23;;;;;;;10.70;6.77;;;2.30;79.10;;;;;;5066213;28;20674;-78
2022/01/30 05:35:52;;;;;;;14.00;7.53;;;2.40;78.90;;;;;;5055426;28;21053;-79
2022/01/30 05:38:23;;;;;;;13.77;7.88;;;2.40;79.00;;;;;;5057210;28;20446;-78
2022/01/30 05:40:52;;;;;;;13.37;7.03;;;2.50;79.10;;;;;;5059304;28;20679;-79
2022/01/30 05:43:23;;;;;;;16.30;7.00;;;2.50;79.00;;;;;;5055644;28;20210;-77
2022/01/30 05:45:59;;;;;;;17.80;5.77;;;2.50;79.00;;;;;;5059284;28;20190;-78
2022/01/30 05:48:28;;;;;;;13.10;7.20;;;2.60;78.90;;;;;;5055274;28;20202;-78
2022/01/30 05:50:57;;;;;;;10.40;6.00;;;2.60;78.70;;;;;;5053363;28;20261;-78
2022/01/30 05:53:25;;;;;;;14.30;6.30;;;2.70;78.60;;;;;;5060276;28;20203;-78
2022/01/30 05:55:53;;;;;;;12.27;6.83;;;2.70;78.60;;;;;;5068989;28;20710;-78
2022/01/30 05:58:23;;;;;;;13.00;6.07;;;2.80;78.40;;;;;;5062488;28;20715;-78
2022/01/30 06:00:51;;;;;;;13.20;6.93;;;2.80;78.30;;;;;;5065004;28;20248;-78
2022/01/30 06:03:20;;;;;;;14.50;6.63;;;2.90;78.20;;;;;;5066187;28;20194;-78
2022/01/30 06:05:49;;;;;;;13.17;6.47;;;2.90;78.30;;;;;;5067454;28;20277;-79
2022/01/30 06:08:39;;;;;;;12.07;6.77;;;2.90;78.20;;;;;;5069244;28;20183;-78
2022/01/30 06:11:08;;;;;;;12.63;6.20;;;2.90;78.40;;;;;;5064790;28;20184;-78
2022/01/30 06:13:38;;;;;;;13.00;5.83;;;2.90;78.20;;;;;;5064605;28;20729;-78
2022/01/30 06:16:07;;;;;;;12.87;7.27;;;3.00;78.20;;;;;;5066244;28;20167;-78
2022/01/30 06:18:35;;;;;;;13.13;6.70;;;3.00;78.20;;;;;;5069318;28;20191;-78
2022/01/30 06:21:03;;;;;;;10.87;6.03;;;3.00;78.20;;;;;;5067374;28;20214;-78
2022/01/30 06:23:32;;;;;;;14.70;6.20;;;3.00;78.10;;;;;;5069192;28;20402;-78
2022/01/30 06:26:00;;;;;;;15.90;6.70;;;3.00;78.00;;;;;;5069607;28;20191;-77
2022/01/30 06:28:29;;;;;;;13.57;5.80;;;3.10;78.00;;;;;;5066887;28;20872;-78
2022/01/30 06:30:59;;;;;;;14.87;6.23;;;3.10;77.90;;;;;;5065477;28;20187;-77
2022/01/30 06:33:27;;;;;;;9.83;5.57;;;3.10;77.90;;;;;;5065099;28;20867;-78
2022/01/30 06:35:55;;;;;;;11.77;6.37;;;3.10;77.70;;;;;;5065028;28;20186;-78
2022/01/30 06:38:24;;;;;;;16.43;6.53;;;3.20;77.70;;;;;;5067580;28;20204;-79
2022/01/30 06:40:52;;;;;;;16.07;6.43;;;3.20;77.60;;;;;;5068155;28;20665;-78
2022/01/30 06:43:20;;;;;;;11.13;5.87;;;3.30;77.50;;;;;;5067117;28;20193;-77
2022/01/30 06:45:49;;;;;;;11.93;6.60;;;3.30;77.30;;;;;;5063190;28;20556;-78
2022/01/30 06:48:19;;;;;;;11.83;5.40;;;3.30;77.20;;;;;;5059271;28;20196;-78
2022/01/30 06:50:47;;;;;;;12.70;5.50;;;3.30;77.20;;;;;;5070221;28;20714;-78
2022/01/30 06:53:16;;;;;;;9.87;5.43;;;3.30;77.20;;;;;;5067312;28;20198;-78
2022/01/30 06:55:44;;;;;;;9.70;5.57;;;3.40;77.20;;;;;;5064263;28;20197;-79
2022/01/30 06:58:13;;;;;;;10.53;5.20;;;3.30;77.00;;;;;;5071342;28;20199;-78
2022/01/30 07:00:42;;;;;;;9.60;5.37;;;3.40;77.20;;;;;;5067883;28;20220;-79
2022/01/30 07:03:11;;;;;;;10.33;4.97;;;3.30;77.20;;;;;;5071366;28;20184;-78
2022/01/30 07:05:42;;;;;;;16.33;5.13;;;3.40;77.10;;;;;;5061000;28;20201;-80
2022/01/30 07:08:10;;;;;;;10.30;6.05;;;3.40;77.10;;;;;;5066954;28;20428;-78
2022/01/30 07:10:39;;;;;;;10.00;5.63;;;3.50;77.00;;;;;;5063724;28;20221;-79
2022/01/30 07:13:08;;;;;;;10.63;4.97;;;3.40;77.00;;;;;;5059489;28;20201;-77
2022/01/30 07:15:36;;;;;;;12.13;5.27;;;3.50;77.00;;;;;;5063767;28;20210;-77
2022/01/30 07:18:05;;;;;;;11.93;6.13;;;3.50;76.90;;;;;;5061016;28;20201;-80
2022/01/30 07:20:33;;;;;;;11.87;5.67;;;3.50;76.80;;;;;;5060333;28;20201;-79
2022/01/30 07:23:03;;;;;;;9.03;5.27;;;3.60;76.70;;;;;;5060584;28;20636;-79
2022/01/30 07:25:31;;;;;;;12.20;5.30;;;3.60;76.60;;;;;;5065012;28;20205;-78
2022/01/30 07:27:59;;;;;;;10.17;6.20;;;3.60;76.50;;;;;;5069532;28;20207;-78
2022/01/30 07:30:28;;;;;;;8.17;5.00;;;3.70;76.40;;;;;;5065395;28;20192;-79
2022/01/30 07:32:56;;;;;;;12.93;6.20;;;3.70;76.30;;;;;;5063536;28;20267;-77
2022/01/30 07:35:24;;;;;;;9.37;4.93;;;3.80;76.30;;;;;;5065210;28;20805;-77
2022/01/30 07:37:53;;;;;;;9.43;5.00;;;3.90;76.30;;;;;;5063030;28;20556;-78
2022/01/30 07:40:23;;;;;;;11.27;5.37;;;4.00;76.00;;;;;;5065409;28;20190;-78
2022/01/30 07:42:51;;;;;;;6.73;4.53;;;4.00;75.60;;;;;;5064990;28;20218;-77
2022/01/30 07:45:20;;;;;;;9.10;5.60;;;4.00;75.40;;;;;;5064644;28;20216;-77
2022/01/30 07:47:48;;;;;;;9.20;4.63;;;4.10;75.30;;;;;;5068798;28;20809;-77
2022/01/30 07:50:16;;;;;;;9.70;5.23;;;4.10;75.20;;;;;;5064029;28;20189;-76
2022/01/30 07:52:45;;;;;;;12.80;5.63;;;4.20;75.00;;;;;;5064585;28;20532;-76
2022/01/30 07:55:13;;;;;;;8.97;5.30;;;4.20;74.70;;;;;;5071515;28;20608;-76
2022/01/30 07:57:43;;;;;;;11.10;5.00;;;4.30;74.60;;;;;;5065971;28;20217;-77
2022/01/30 08:00:12;;;;;;;10.77;5.13;;;4.30;74.50;;;;;;5064846;28;20193;-77
2022/01/30 08:02:41;;;;;;;11.03;5.43;;;4.30;74.40;;;;;;5067484;28;20197;-77
2022/01/30 08:05:10;;;;;;;9.37;4.93;;;4.40;74.40;;;;;;5064902;28;20280;-77
2022/01/30 08:07:38;;;;;;;9.90;4.93;;;4.50;74.30;;;;;;5065652;28;20209;-77
2022/01/30 08:10:07;;;;;;;11.27;4.50;;;4.60;74.40;;;;;;5064772;28;20209;-78
2022/01/30 08:12:36;;;;;;;11.33;5.03;;;4.70;74.30;;;;;;5065271;28;20190;-79
2022/01/30 08:15:07;;;;;;;14.82;6.00;;;4.70;73.90;;;;;;5067635;28;20430;-78
2022/01/30 08:17:37;;;;;;;10.13;4.87;;;4.80;74.10;;;;;;5067260;28;20621;-80
2022/01/30 08:20:07;;;;;;;10.63;4.93;;;4.80;74.00;;;;;;5064738;28;20179;-79
2022/01/30 08:22:45;;;;;;;11.93;4.80;;;4.90;73.30;;;;;;5064715;28;20221;-78
2022/01/30 08:25:14;;;;;;;9.57;4.90;;;4.90;72.90;;;;;;5061761;28;20196;-79
2022/01/30 08:27:43;;;;;;;12.32;5.50;;;4.90;72.80;;;;;;5062764;28;20975;-79
2022/01/30 08:30:13;;;;;;;10.47;4.77;;;5.00;73.10;;;;;;5064856;28;20277;-80
2022/01/30 08:32:42;;;;;;;12.60;5.70;;;5.00;72.70;;;;;;5063198;28;20545;-78
2022/01/30 08:35:13;;;;;;;11.10;4.63;;;5.10;72.50;;;;;;5062919;28;20190;-79
2022/01/30 08:37:42;;;;;;;12.27;5.50;;;5.10;72.00;;;;;;5063138;28;20181;-80
2022/01/30 08:40:12;;;;;;;10.82;5.05;;;5.10;71.80;;;;;;5064124;28;20424;-79
2022/01/30 08:42:41;;;;;;;9.90;4.33;;;5.20;72.20;;;;;;5068218;28;20199;-80
2022/01/30 08:45:13;;;;;;;10.00;5.60;;;5.30;71.80;;;;;;5063956;28;20219;-79
2022/01/30 08:47:42;;;;;;;11.33;5.07;;;5.40;71.70;;;;;;5061741;28;20553;-80
2022/01/30 08:50:12;;;;;;;8.13;4.70;;;5.40;71.60;;;;;;5060853;28;20195;-79
2022/01/30 08:52:41;;;;;;;9.53;5.50;;;5.50;71.20;;;;;;5068286;28;20208;-80
2022/01/30 08:55:10;;;;;;;9.40;4.83;;;5.50;71.20;;;;;;5061878;28;20705;-79
2022/01/30 08:57:38;;;;;;;9.00;5.07;;;5.60;70.90;;;;;;5076593;28;20237;-80
2022/01/30 09:00:11;;;;;;;8.47;4.27;;;5.60;70.50;;;;;;5082033;28;20648;-79
2022/01/30 09:02:40;;;;;;;7.90;4.37;;;5.70;70.50;;;;;;5084151;28;20209;-80
2022/01/30 09:05:11;;;;;;;11.53;5.07;;;5.90;70.30;;;;;;5079348;28;20190;-79
2022/01/30 09:07:40;;;;;;;10.63;4.60;;;6.00;70.00;;;;;;5082634;28;20185;-80
2022/01/30 09:10:10;;;;;;;13.30;3.93;;;6.10;68.30;;;;;;5081832;28;20194;-78
2022/01/30 09:12:40;;;;;;;8.97;3.80;;;6.20;67.20;;;;;;5081868;28;20281;-79
2022/01/30 09:15:13;;;;;;;9.10;4.27;;;6.40;67.00;;;;;;5082899;28;20852;-79
2022/01/30 09:17:43;;;;;;;6.57;3.60;;;6.50;66.00;;;;;;5081338;28;20265;-78
2022/01/30 09:20:13;;;;;;;8.23;3.63;;;6.60;64.90;;;;;;5081668;28;20187;-78
2022/01/30 09:22:43;;;;;;;9.83;4.23;;;6.70;65.10;;;;;;5080312;28;20203;-79
2022/01/30 09:25:11;;;;;;;10.73;4.13;;;6.90;64.60;;;;;;5081319;28;20196;-79
2022/01/30 09:27:40;;;;;;;10.27;4.07;;;7.00;64.70;;;;;;5081771;28;20712;-79
2022/01/30 09:30:09;;;;;;;11.43;4.67;;;7.10;63.80;;;;;;5081953;28;20246;-77
2022/01/30 09:32:39;;;;;;;7.13;3.73;;;7.20;63.00;;;;;;5082064;28;20188;-78
2022/01/30 09:35:10;;;;;;;8.23;4.00;;;7.20;62.40;;;;;;5088373;28;20202;-79
2022/01/30 09:37:38;;;;;;;8.33;4.00;;;7.30;62.40;;;;;;5081395;28;20185;-78
2022/01/30 09:40:08;;;;;;;13.73;5.03;;;7.40;62.50;;;;;;5081644;28;20247;-78
2022/01/30 09:42:38;;;;;;;9.03;3.87;;;7.50;62.30;;;;;;5084303;28;20208;-80
2022/01/30 09:45:06;;;;;;;11.17;4.03;;;7.50;61.60;;;;;;5087469;28;20199;-77
2022/01/30 09:47:35;;;;;;;10.93;4.13;;;7.60;61.00;;;;;;5085589;28;20187;-79
2022/01/30 09:50:05;;;;;;;8.53;3.63;;;7.70;60.90;;;;;;5086095;28;20200;-78
2022/01/30 09:52:36;;;;;;;11.00;3.97;;;7.80;61.10;;;;;;5088334;28;20886;-77
2022/01/30 09:55:05;;;;;;;9.17;3.67;;;7.80;60.50;;;;;;5090376;28;20234;-77
2022/01/30 09:57:34;;;;;;;10.07;4.10;;;7.90;61.20;;;;;;5085611;28;20240;-76
2022/01/30 10:00:04;;;;;;;7.13;3.70;;;8.00;60.80;;;;;;5085609;28;20215;-76
2022/01/30 10:02:32;;;;;;;8.67;3.17;;;8.10;60.30;;;;;;5086128;28;20219;-77
2022/01/30 10:05:01;;;;;;;9.95;4.80;;;8.20;60.10;;;;;;5086670;28;20437;-76
2022/01/30 10:07:42;;;;;;;7.03;3.30;;;8.30;59.90;;;;;;5077669;28;20383;-76
2022/01/30 10:10:16;;;;;;;10.67;4.10;;;8.40;59.70;;;;;;5083392;28;20222;-77
2022/01/30 10:13:06;;;;;;;9.23;3.20;;;8.40;58.60;;;;;;5086182;28;20182;-77
2022/01/30 10:15:52;;;;;;;8.63;3.07;;;8.50;58.90;;;;;;5077181;28;20252;-77
2022/01/30 10:18:22;;;;;;;9.40;3.20;;;8.50;58.00;;;;;;5086396;28;20212;-75
2022/01/30 10:20:51;;;;;;;6.33;3.13;;;8.50;57.10;;;;;;5082139;28;20200;-77
2022/01/30 10:23:31;;;;;;;6.10;2.93;;;8.60;57.50;;;;;;5084862;28;20275;-76
2022/01/30 10:26:01;;;;;;;8.13;3.40;;;8.60;57.60;;;;;;5084159;28;20186;-76
2022/01/30 10:28:31;;;;;;;9.57;3.40;;;8.70;57.30;;;;;;5081732;28;20190;-78
2022/01/30 10:31:03;;;;;;;6.77;3.00;;;8.80;56.90;;;;;;5076903;28;20187;-79
2022/01/30 10:33:51;;;;;;;7.33;2.90;;;8.90;57.10;;;;;;5084462;28;20208;-77
2022/01/30 10:36:21;;;;;;;8.43;3.43;;;9.00;56.80;;;;;;5082373;28;20185;-79
2022/01/30 10:39:01;;;;;;;5.80;2.97;;;9.10;56.40;;;;;;5081836;28;20201;-75
2022/01/30 10:41:36;;;;;;;10.97;3.10;;;9.20;56.60;;;;;;5079940;28;20187;-77
2022/01/30 10:44:06;;;;;;;8.40;3.07;;;9.30;55.80;;;;;;5084449;28;20277;-74
2022/01/30 10:46:42;;;;;;;6.90;2.97;;;9.40;55.50;;;;;;5078432;28;20194;-77
2022/01/30 10:49:12;;;;;;;9.73;2.97;;;9.60;55.50;;;;;;5087809;28;20177;-75
2022/01/30 10:51:51;;;;;;;5.87;2.80;;;9.70;55.80;;;;;;5085774;28;20206;-75
2022/01/30 10:54:23;;;;;;;8.67;2.70;;;9.90;55.50;;;;;;5092933;28;20173;-78
2022/01/30 10:57:02;;;;;;;6.93;2.90;;;10.00;55.10;;;;;;5085443;28;20213;-77
2022/01/30 10:59:30;;;;;;;9.70;2.60;;;10.10;54.50;;;;;;5087403;28;20193;-75
2022/01/30 11:02:12;;;;;;;7.60;2.70;;;10.10;53.60;;;;;;5087464;28;20186;-77
2022/01/30 11:04:41;;;;;;;6.50;2.53;;;10.20;54.10;;;;;;5086215;28;20221;-78
2022/01/30 11:07:10;;;;;;;6.67;3.00;;;10.30;53.50;;;;;;5088074;28;20253;-76
2022/01/30 11:09:43;;;;;;;9.50;2.33;;;10.30;53.60;;;;;;5086110;28;20200;-77
2022/01/30 11:12:15;;;;;;;7.00;2.60;;;10.50;53.90;;;;;;5086832;28;20243;-76
2022/01/30 11:14:54;;;;;;;9.53;2.60;;;10.60;53.80;;;;;;5086451;28;20182;-75
2022/01/30 11:17:23;;;;;;;5.80;2.53;;;10.60;53.10;;;;;;5083991;28;20205;-76
2022/01/30 11:19:56;;;;;;;6.17;2.40;;;10.70;53.40;;;;;;5076713;28;20194;-77
2022/01/30 11:22:25;;;;;;;11.13;2.57;;;10.80;53.60;;;;;;5082841;28;20178;-74
2022/01/30 11:25:00;;;;;;;7.83;2.70;;;10.90;53.90;;;;;;5082228;28;20255;-76
2022/01/30 11:27:28;;;;;;;9.40;2.60;;;11.10;54.40;;;;;;5082428;28;20212;-75
2022/01/30 11:29:57;;;;;;;7.03;2.50;;;11.20;53.10;;;;;;5083746;28;20263;-74
2022/01/30 11:32:27;;;;;;;6.17;2.40;;;11.30;53.20;;;;;;5094258;28;20273;-73
2022/01/30 11:34:57;;;;;;;7.33;2.67;;;11.40;53.40;;;;;;5085488;28;20216;-74
2022/01/30 11:37:32;;;;;;;8.07;2.83;;;11.50;52.70;;;;;;5082963;28;20810;-74
2022/01/30 11:40:12;;;;;;;8.17;3.10;;;11.60;52.80;;;;;;5076489;28;20563;-73
2022/01/30 11:42:44;;;;;;;8.17;3.10;;;11.70;52.40;;;;;;5084182;28;20221;-75
2022/01/30 11:45:17;;;;;;;7.23;2.90;;;11.70;52.00;;;;;;5085926;28;20202;-74
2022/01/30 11:48:12;;;;;;;4.33;2.47;;;11.80;52.10;;;;;;5091217;28;20317;-74
2022/01/30 11:50:40;;;;;;;6.50;2.83;;;11.80;51.60;;;;;;5086695;28;20200;-76
2022/01/30 11:53:09;;;;;;;9.57;2.30;;;11.80;51.50;;;;;;5093885;28;20194;-75
2022/01/30 11:56:00;;;;;;;6.27;2.33;;;11.90;51.70;;;;;;5083742;28;20277;-73
2022/01/30 11:58:49;;;;;;;5.57;2.10;;;12.00;51.50;;;;;;5081418;28;20225;-75
2022/01/30 12:01:38;;;;;;;5.43;2.10;;;12.00;51.60;;;;;;5087039;28;20189;-76
2022/01/30 12:04:16;;;;;;;8.13;2.40;;;12.20;51.70;;;;;;5093915;28;20205;-74
2022/01/30 12:06:50;;;;;;;5.20;2.20;;;12.20;51.40;;;;;;5102800;28;20177;-77
2022/01/30 12:09:22;;;;;;;5.00;2.17;;;12.30;50.70;;;;;;5097543;28;20220;-74
2022/01/30 12:12:05;;;;;;;13.50;2.60;;;12.40;50.70;;;;;;5082746;28;20189;-76
2022/01/30 12:14:58;;;;;;;7.67;2.80;;;12.50;51.20;;;;;;5088807;28;20220;-78
2022/01/30 12:17:50;;;;;;;7.70;2.33;;;12.60;50.50;;;;;;5076907;28;20185;-75
2022/01/30 12:20:22;;;;;;;7.17;2.60;;;12.80;51.00;;;;;;5082652;28;20178;-77
2022/01/30 12:22:52;;;;;;;13.33;3.47;;;12.90;50.90;;;;;;5077253;28;20193;-74
2022/01/30 12:25:35;;;;;;;21.93;6.60;;;13.10;49.90;;;;;;5091248;28;20210;-78
2022/01/30 12:28:13;;;;;;;15.00;5.07;;;13.20;50.20;;;;;;5078666;28;20586;-76
2022/01/30 12:30:51;;;;;;;12.50;4.33;;;13.30;49.40;;;;;;5083791;28;20275;-75
2022/01/30 12:33:40;;;;;;;14.38;4.30;;;13.40;49.70;;;;;;5076330;28;20460;-74
2022/01/30 12:36:22;;;;;;;12.20;2.80;;;13.50;49.50;;;;;;5082050;28;20289;-74
2022/01/30 12:38:58;;;;;;;16.13;2.93;;;13.50;49.00;;;;;;5078710;28;20194;-74
2022/01/30 12:41:28;;;;;;;76.37;6.63;;;13.50;48.90;;;;;;5064713;28;20655;-75
2022/01/30 12:44:03;;;;;;;21.10;4.03;;;13.50;49.40;;;;;;5065543;28;20293;-75
2022/01/30 12:46:34;;;;;;;24.33;2.90;;;13.40;49.10;;;;;;5080314;28;20651;-75
2022/01/30 12:49:15;;;;;;;8.93;2.53;;;13.30;49.50;;;;;;5065747;28;20186;-76
2022/01/30 12:51:47;;;;;;;8.93;1.73;;;13.30;49.80;;;;;;5065596;28;20190;-75
2022/01/30 12:54:17;;;;;;;11.33;2.67;;;13.20;49.90;;;;;;5071674;28;20842;-76
2022/01/30 12:56:46;;;;;;;15.73;2.00;;;13.20;50.00;;;;;;5080374;28;20782;-76
2022/01/30 12:59:17;;;;;;;10.23;2.43;;;13.20;50.10;;;;;;5080900;28;20676;-77
2022/01/30 13:01:48;;;;;;;6.13;1.80;;;13.30;50.30;;;;;;5073702;28;20298;-75
2022/01/30 13:04:19;;;;;;;7.97;2.17;;;13.40;50.30;;;;;;5081333;28;20674;-75
2022/01/30 13:06:51;;;;;;;4.20;1.40;;;13.50;50.10;;;;;;5082225;28;20181;-75
2022/01/30 13:09:21;;;;;;;5.23;1.30;;;13.60;50.00;;;;;;5082165;28;20201;-76
2022/01/30 13:11:50;;;;;;;10.57;2.33;;;13.80;50.00;;;;;;5082338;28;20608;-76
2022/01/30 13:14:21;;;;;;;14.50;2.60;;;14.00;49.50;;;;;;5072927;28;20285;-74
2022/01/30 13:16:50;;;;;;;9.97;1.97;;;14.20;49.90;;;;;;5083355;28;20213;-75
2022/01/30 13:19:30;;;;;;;12.57;2.10;;;14.50;49.40;;;;;;5091913;28;20276;-75
2022/01/30 13:21:59;;;;;;;8.70;1.83;;;14.80;48.60;;;;;;5086376;28;20181;-77
2022/01/30 13:24:27;;;;;;;11.70;1.80;;;15.30;49.20;;;;;;5090513;28;20206;-75
2022/01/30 13:26:57;;;;;;;8.60;2.00;;;15.50;47.90;;;;;;5092560;28;20270;-74
2022/01/30 13:29:27;;;;;;;8.77;1.80;;;15.60;47.30;;;;;;5087240;28;20245;-76
2022/01/30 13:31:59;;;;;;;12.43;1.90;;;15.50;46.90;;;;;;5081152;28;20197;-76
2022/01/30 13:34:32;;;;;;;11.70;2.00;;;15.30;46.80;;;;;;5074607;28;20186;-77
2022/01/30 13:37:03;;;;;;;6.80;1.60;;;15.10;47.00;;;;;;5076000;28;20303;-78
2022/01/30 13:39:45;;;;;;;4.53;1.53;;;14.90;47.20;;;;;;5077654;28;20285;-78
2022/01/30 13:42:38;;;;;;;4.13;1.50;;;14.80;47.60;;;;;;5074639;28;20194;-75
2022/01/30 13:48:13;;;;;;;5.00;1.40;;;14.80;47.80;;;;;;5066867;28;20194;-74
2022/01/30 13:50:44;;;;;;;5.83;1.50;;;15.40;46.90;;;;;;5086343;28;20213;-74